sensor_id;sensor_type;location;lat;lon;timestamp;temperature;humidity
73254;DHT22;61474;50.834;4.552;2022-09-09T00:06:25;25.80;48.00
73254;DHT22;61474;50.834;4.552;2022-09-09T00:11:24;25.80;48.00
73254;DHT22;61474;50.834;4.552;2022-09-09T00:13:52;25.80;48.00
73254;DHT22;61474;50.834;4.552;2022-09-09T00:16:19;25.80;48.00
73254;DHT22;61474;50.834;4.552;2022-09-09T00:21:38;25.80;48.00
73254;DHT22;61474;50.834;4.552;2022-09-09T00:24:17;25.80;48.00
73254;DHT22;61474;50.834;4.552;2022-09-09T00:26:47;25.80;48.00
73254;DHT22;61474;50.834;4.552;2022-09-09T00:31:39;25.80;48.10
73254;DHT22;61474;50.834;4.552;2022-09-09T00:34:12;25.70;48.10
73254;DHT22;61474;50.834;4.552;2022-09-09T00:36:39;25.70;48.30
73254;DHT22;61474;50.834;4.552;2022-09-09T00:39:05;25.70;48.40
73254;DHT22;61474;50.834;4.552;2022-09-09T00:44:11;25.70;48.40
73254;DHT22;61474;50.834;4.552;2022-09-09T00:50:21;25.70;48.30
73254;DHT22;61474;50.834;4.552;2022-09-09T00:55:00;25.70;48.30
73254;DHT22;61474;50.834;4.552;2022-09-09T00:57:29;25.80;48.40
73254;DHT22;61474;50.834;4.552;2022-09-09T00:59:58;25.80;48.40
73254;DHT22;61474;50.834;4.552;2022-09-09T01:03:00;25.70;48.40
73254;DHT22;61474;50.834;4.552;2022-09-09T01:05:18;25.80;48.50
73254;DHT22;61474;50.834;4.552;2022-09-09T01:07:46;25.80;48.40
73254;DHT22;61474;50.834;4.552;2022-09-09T01:10:21;25.80;48.50
73254;DHT22;61474;50.834;4.552;2022-09-09T01:12:50;25.70;48.50
73254;DHT22;61474;50.834;4.552;2022-09-09T01:15:27;25.70;48.50
73254;DHT22;61474;50.834;4.552;2022-09-09T01:18:02;25.70;48.50
73254;DHT22;61474;50.834;4.552;2022-09-09T01:20:37;25.60;48.70
73254;DHT22;61474;50.834;4.552;2022-09-09T01:23:11;25.60;48.80
73254;DHT22;61474;50.834;4.552;2022-09-09T01:28:26;25.60;48.80
73254;DHT22;61474;50.834;4.552;2022-09-09T01:30:52;25.60;48.80
73254;DHT22;61474;50.834;4.552;2022-09-09T01:33:18;25.60;48.90
73254;DHT22;61474;50.834;4.552;2022-09-09T01:35:46;25.60;49.10
73254;DHT22;61474;50.834;4.552;2022-09-09T01:38:13;25.50;49.00
73254;DHT22;61474;50.834;4.552;2022-09-09T01:40:39;25.60;48.90
73254;DHT22;61474;50.834;4.552;2022-09-09T01:43:05;25.60;49.20
73254;DHT22;61474;50.834;4.552;2022-09-09T01:45:31;25.60;49.20
73254;DHT22;61474;50.834;4.552;2022-09-09T01:47:57;25.60;49.00
73254;DHT22;61474;50.834;4.552;2022-09-09T01:50:23;25.60;49.10
73254;DHT22;61474;50.834;4.552;2022-09-09T01:52:50;25.60;49.10
73254;DHT22;61474;50.834;4.552;2022-09-09T01:55:18;25.60;49.10
73254;DHT22;61474;50.834;4.552;2022-09-09T02:00:20;25.50;49.30
73254;DHT22;61474;50.834;4.552;2022-09-09T02:02:54;25.50;49.20
73254;DHT22;61474;50.834;4.552;2022-09-09T02:07:48;25.60;49.20
73254;DHT22;61474;50.834;4.552;2022-09-09T02:10:16;25.60;49.30
73254;DHT22;61474;50.834;4.552;2022-09-09T02:12:47;25.60;49.30
73254;DHT22;61474;50.834;4.552;2022-09-09T02:17:57;25.60;49.30
73254;DHT22;61474;50.834;4.552;2022-09-09T02:20:23;25.50;49.40
73254;DHT22;61474;50.834;4.552;2022-09-09T02:22:51;25.50;49.40
73254;DHT22;61474;50.834;4.552;2022-09-09T02:25:19;25.60;49.30
73254;DHT22;61474;50.834;4.552;2022-09-09T02:27:45;25.60;49.30
73254;DHT22;61474;50.834;4.552;2022-09-09T02:30:13;25.60;49.30
73254;DHT22;61474;50.834;4.552;2022-09-09T02:32:38;25.50;49.40
73254;DHT22;61474;50.834;4.552;2022-09-09T02:35:11;25.50;49.40
73254;DHT22;61474;50.834;4.552;2022-09-09T02:37:38;25.50;49.40
73254;DHT22;61474;50.834;4.552;2022-09-09T02:40:08;25.50;49.50
73254;DHT22;61474;50.834;4.552;2022-09-09T02:42:41;25.50;49.40
73254;DHT22;61474;50.834;4.552;2022-09-09T02:45:07;25.60;49.40
73254;DHT22;61474;50.834;4.552;2022-09-09T02:47:48;25.60;49.30
73254;DHT22;61474;50.834;4.552;2022-09-09T02:50:16;25.50;49.30
73254;DHT22;61474;50.834;4.552;2022-09-09T02:52:54;25.50;49.40
73254;DHT22;61474;50.834;4.552;2022-09-09T02:55:29;25.40;49.60
73254;DHT22;61474;50.834;4.552;2022-09-09T02:58:02;25.40;49.60
73254;DHT22;61474;50.834;4.552;2022-09-09T03:00:29;25.30;49.70
73254;DHT22;61474;50.834;4.552;2022-09-09T03:02:55;25.30;49.80
73254;DHT22;61474;50.834;4.552;2022-09-09T03:05:21;25.30;49.60
73254;DHT22;61474;50.834;4.552;2022-09-09T03:07:47;25.30;49.70
73254;DHT22;61474;50.834;4.552;2022-09-09T03:10:12;25.30;49.80
73254;DHT22;61474;50.834;4.552;2022-09-09T03:12:38;25.30;49.70
73254;DHT22;61474;50.834;4.552;2022-09-09T03:15:04;25.30;49.50
73254;DHT22;61474;50.834;4.552;2022-09-09T03:17:30;25.40;49.60
73254;DHT22;61474;50.834;4.552;2022-09-09T03:19:55;25.40;49.40
73254;DHT22;61474;50.834;4.552;2022-09-09T03:22:23;25.40;50.10
73254;DHT22;61474;50.834;4.552;2022-09-09T03:24:48;25.30;49.50
73254;DHT22;61474;50.834;4.552;2022-09-09T03:27:13;25.30;49.70
73254;DHT22;61474;50.834;4.552;2022-09-09T03:29:42;25.30;49.50
73254;DHT22;61474;50.834;4.552;2022-09-09T03:32:08;25.20;49.70
73254;DHT22;61474;50.834;4.552;2022-09-09T03:34:35;25.20;49.70
73254;DHT22;61474;50.834;4.552;2022-09-09T03:37:02;25.40;49.40
73254;DHT22;61474;50.834;4.552;2022-09-09T03:39:27;25.40;49.40
73254;DHT22;61474;50.834;4.552;2022-09-09T03:41:54;25.30;49.40
73254;DHT22;61474;50.834;4.552;2022-09-09T03:44:19;25.30;49.40
73254;DHT22;61474;50.834;4.552;2022-09-09T03:46:45;25.20;49.40
73254;DHT22;61474;50.834;4.552;2022-09-09T03:49:11;25.30;49.40
73254;DHT22;61474;50.834;4.552;2022-09-09T03:51:36;25.20;49.40
73254;DHT22;61474;50.834;4.552;2022-09-09T03:54:02;25.20;50.20
73254;DHT22;61474;50.834;4.552;2022-09-09T03:56:30;25.00;49.80
73254;DHT22;61474;50.834;4.552;2022-09-09T03:58:56;25.00;49.90
73254;DHT22;61474;50.834;4.552;2022-09-09T04:01:22;24.90;49.90
73254;DHT22;61474;50.834;4.552;2022-09-09T04:03:48;25.00;49.80
73254;DHT22;61474;50.834;4.552;2022-09-09T04:06:13;25.10;49.70
73254;DHT22;61474;50.834;4.552;2022-09-09T04:08:40;25.10;49.50
73254;DHT22;61474;50.834;4.552;2022-09-09T04:11:06;25.10;49.50
73254;DHT22;61474;50.834;4.552;2022-09-09T04:13:33;25.00;49.60
73254;DHT22;61474;50.834;4.552;2022-09-09T04:15:59;25.00;49.60
73254;DHT22;61474;50.834;4.552;2022-09-09T04:18:25;25.00;49.60
73254;DHT22;61474;50.834;4.552;2022-09-09T04:20:52;25.10;49.60
73254;DHT22;61474;50.834;4.552;2022-09-09T04:23:18;25.10;49.70
73254;DHT22;61474;50.834;4.552;2022-09-09T04:25:45;25.00;49.50
73254;DHT22;61474;50.834;4.552;2022-09-09T04:28:12;25.00;49.60
73254;DHT22;61474;50.834;4.552;2022-09-09T04:30:38;25.00;49.50
73254;DHT22;61474;50.834;4.552;2022-09-09T04:33:05;25.00;49.50
73254;DHT22;61474;50.834;4.552;2022-09-09T04:35:30;24.90;49.70
73254;DHT22;61474;50.834;4.552;2022-09-09T04:37:56;25.00;49.80
73254;DHT22;61474;50.834;4.552;2022-09-09T04:40:21;25.00;49.60
73254;DHT22;61474;50.834;4.552;2022-09-09T04:42:47;25.00;49.50
73254;DHT22;61474;50.834;4.552;2022-09-09T04:45:15;25.00;49.50
73254;DHT22;61474;50.834;4.552;2022-09-09T04:47:41;25.10;49.50
73254;DHT22;61474;50.834;4.552;2022-09-09T04:50:07;25.20;49.30
73254;DHT22;61474;50.834;4.552;2022-09-09T04:52:36;25.20;49.30
73254;DHT22;61474;50.834;4.552;2022-09-09T04:55:02;25.20;49.30
73254;DHT22;61474;50.834;4.552;2022-09-09T04:57:28;25.20;49.20
73254;DHT22;61474;50.834;4.552;2022-09-09T04:59:54;25.20;49.30
73254;DHT22;61474;50.834;4.552;2022-09-09T05:02:19;25.10;49.30
73254;DHT22;61474;50.834;4.552;2022-09-09T05:04:45;25.10;49.30
73254;DHT22;61474;50.834;4.552;2022-09-09T05:07:10;25.10;49.40
73254;DHT22;61474;50.834;4.552;2022-09-09T05:09:35;25.10;49.30
73254;DHT22;61474;50.834;4.552;2022-09-09T05:12:01;25.10;49.30
73254;DHT22;61474;50.834;4.552;2022-09-09T05:14:28;25.20;49.10
73254;DHT22;61474;50.834;4.552;2022-09-09T05:16:54;25.20;49.00
73254;DHT22;61474;50.834;4.552;2022-09-09T05:19:21;25.20;49.10
73254;DHT22;61474;50.834;4.552;2022-09-09T05:21:46;25.20;49.10
73254;DHT22;61474;50.834;4.552;2022-09-09T05:24:12;25.20;49.20
73254;DHT22;61474;50.834;4.552;2022-09-09T05:26:37;25.10;49.10
73254;DHT22;61474;50.834;4.552;2022-09-09T05:29:02;25.00;49.40
73254;DHT22;61474;50.834;4.552;2022-09-09T05:31:29;25.10;49.40
73254;DHT22;61474;50.834;4.552;2022-09-09T05:33:55;25.00;49.30
73254;DHT22;61474;50.834;4.552;2022-09-09T05:36:21;25.00;49.40
73254;DHT22;61474;50.834;4.552;2022-09-09T05:38:47;25.00;49.50
73254;DHT22;61474;50.834;4.552;2022-09-09T05:41:13;24.90;49.60
73254;DHT22;61474;50.834;4.552;2022-09-09T05:43:41;25.00;49.50
73254;DHT22;61474;50.834;4.552;2022-09-09T05:46:10;24.90;49.50
73254;DHT22;61474;50.834;4.552;2022-09-09T05:48:36;25.10;49.40
73254;DHT22;61474;50.834;4.552;2022-09-09T05:51:03;25.10;49.30
73254;DHT22;61474;50.834;4.552;2022-09-09T05:53:29;25.10;49.20
73254;DHT22;61474;50.834;4.552;2022-09-09T05:55:59;25.20;49.20
73254;DHT22;61474;50.834;4.552;2022-09-09T05:58:24;25.10;49.20
73254;DHT22;61474;50.834;4.552;2022-09-09T06:00:50;25.10;49.40
73254;DHT22;61474;50.834;4.552;2022-09-09T06:03:15;25.10;49.40
73254;DHT22;61474;50.834;4.552;2022-09-09T06:05:42;25.00;49.40
73254;DHT22;61474;50.834;4.552;2022-09-09T06:08:07;25.00;49.40
73254;DHT22;61474;50.834;4.552;2022-09-09T06:10:33;25.00;49.50
73254;DHT22;61474;50.834;4.552;2022-09-09T06:12:59;25.10;49.50
73254;DHT22;61474;50.834;4.552;2022-09-09T06:15:24;25.20;49.40
73254;DHT22;61474;50.834;4.552;2022-09-09T06:17:56;25.20;49.10
73254;DHT22;61474;50.834;4.552;2022-09-09T06:20:21;25.10;49.30
73254;DHT22;61474;50.834;4.552;2022-09-09T06:22:47;25.10;49.40
73254;DHT22;61474;50.834;4.552;2022-09-09T06:25:13;25.00;49.60
73254;DHT22;61474;50.834;4.552;2022-09-09T06:27:39;25.10;49.50
73254;DHT22;61474;50.834;4.552;2022-09-09T06:30:06;25.20;49.30
73254;DHT22;61474;50.834;4.552;2022-09-09T06:32:31;25.20;49.30
73254;DHT22;61474;50.834;4.552;2022-09-09T06:34:58;25.20;49.20
73254;DHT22;61474;50.834;4.552;2022-09-09T06:37:26;25.20;49.10
73254;DHT22;61474;50.834;4.552;2022-09-09T06:39:52;25.30;49.10
73254;DHT22;61474;50.834;4.552;2022-09-09T06:42:19;25.30;49.00
73254;DHT22;61474;50.834;4.552;2022-09-09T06:44:45;25.20;49.10
73254;DHT22;61474;50.834;4.552;2022-09-09T06:47:11;25.30;49.00
73254;DHT22;61474;50.834;4.552;2022-09-09T06:49:36;25.40;49.00
73254;DHT22;61474;50.834;4.552;2022-09-09T06:52:02;25.40;49.00
73254;DHT22;61474;50.834;4.552;2022-09-09T06:54:27;25.30;49.00
73254;DHT22;61474;50.834;4.552;2022-09-09T06:56:53;25.30;49.00
73254;DHT22;61474;50.834;4.552;2022-09-09T06:59:19;25.30;49.00
73254;DHT22;61474;50.834;4.552;2022-09-09T07:01:45;25.30;49.00
73254;DHT22;61474;50.834;4.552;2022-09-09T07:04:12;25.40;49.00
73254;DHT22;61474;50.834;4.552;2022-09-09T07:06:39;25.30;49.20
73254;DHT22;61474;50.834;4.552;2022-09-09T07:09:09;25.20;49.50
73254;DHT22;61474;50.834;4.552;2022-09-09T07:11:39;25.20;50.20
73254;DHT22;61474;50.834;4.552;2022-09-09T07:14:04;25.30;49.30
73254;DHT22;61474;50.834;4.552;2022-09-09T07:16:30;25.30;49.20
73254;DHT22;61474;50.834;4.552;2022-09-09T07:18:58;25.20;49.30
73254;DHT22;61474;50.834;4.552;2022-09-09T07:21:25;25.20;49.30
73254;DHT22;61474;50.834;4.552;2022-09-09T07:23:51;25.40;49.30
73254;DHT22;61474;50.834;4.552;2022-09-09T07:26:17;25.40;49.10
73254;DHT22;61474;50.834;4.552;2022-09-09T07:28:44;25.50;49.00
73254;DHT22;61474;50.834;4.552;2022-09-09T07:31:14;25.40;49.00
73254;DHT22;61474;50.834;4.552;2022-09-09T07:33:42;25.40;49.00
73254;DHT22;61474;50.834;4.552;2022-09-09T07:36:29;25.30;49.20
73254;DHT22;61474;50.834;4.552;2022-09-09T07:38:54;25.40;49.30
73254;DHT22;61474;50.834;4.552;2022-09-09T07:41:21;25.30;49.30
73254;DHT22;61474;50.834;4.552;2022-09-09T07:43:48;25.20;49.40
73254;DHT22;61474;50.834;4.552;2022-09-09T07:46:14;25.30;49.30
73254;DHT22;61474;50.834;4.552;2022-09-09T07:48:46;25.30;49.50
73254;DHT22;61474;50.834;4.552;2022-09-09T07:51:15;25.30;49.50
73254;DHT22;61474;50.834;4.552;2022-09-09T07:53:45;25.20;49.40
73254;DHT22;61474;50.834;4.552;2022-09-09T07:56:11;25.20;49.50
73254;DHT22;61474;50.834;4.552;2022-09-09T07:58:38;25.20;49.60
73254;DHT22;61474;50.834;4.552;2022-09-09T08:01:07;25.20;49.60
73254;DHT22;61474;50.834;4.552;2022-09-09T08:03:33;25.20;49.50
73254;DHT22;61474;50.834;4.552;2022-09-09T08:06:00;25.30;49.60
73254;DHT22;61474;50.834;4.552;2022-09-09T08:08:26;25.40;49.40
73254;DHT22;61474;50.834;4.552;2022-09-09T08:10:52;25.40;49.40
73254;DHT22;61474;50.834;4.552;2022-09-09T08:13:18;25.30;49.50
73254;DHT22;61474;50.834;4.552;2022-09-09T08:15:43;25.30;49.50
73254;DHT22;61474;50.834;4.552;2022-09-09T08:18:09;25.40;49.40
73254;DHT22;61474;50.834;4.552;2022-09-09T08:20:35;25.40;49.70
73254;DHT22;61474;50.834;4.552;2022-09-09T08:23:01;25.40;49.50
73254;DHT22;61474;50.834;4.552;2022-09-09T08:25:26;25.30;49.60
73254;DHT22;61474;50.834;4.552;2022-09-09T08:27:52;25.30;49.80
73254;DHT22;61474;50.834;4.552;2022-09-09T08:30:18;25.30;49.70
73254;DHT22;61474;50.834;4.552;2022-09-09T08:32:43;25.40;49.50
73254;DHT22;61474;50.834;4.552;2022-09-09T08:35:09;25.40;49.80
73254;DHT22;61474;50.834;4.552;2022-09-09T08:37:35;25.30;49.80
73254;DHT22;61474;50.834;4.552;2022-09-09T08:40:00;25.30;49.80
73254;DHT22;61474;50.834;4.552;2022-09-09T08:42:29;25.40;49.80
73254;DHT22;61474;50.834;4.552;2022-09-09T08:45:00;25.50;49.70
73254;DHT22;61474;50.834;4.552;2022-09-09T08:52:54;25.40;50.00
73254;DHT22;61474;50.834;4.552;2022-09-09T08:55:26;25.50;49.90
73254;DHT22;61474;50.834;4.552;2022-09-09T08:57:54;25.50;49.80
73254;DHT22;61474;50.834;4.552;2022-09-09T09:00:20;25.40;50.00
73254;DHT22;61474;50.834;4.552;2022-09-09T09:05:32;25.50;50.40
73254;DHT22;61474;50.834;4.552;2022-09-09T09:10:50;25.50;49.80
73254;DHT22;61474;50.834;4.552;2022-09-09T09:13:20;25.50;49.70
73254;DHT22;61474;50.834;4.552;2022-09-09T09:15:48;25.60;49.70
73254;DHT22;61474;50.834;4.552;2022-09-09T09:18:15;25.70;49.30
73254;DHT22;61474;50.834;4.552;2022-09-09T09:20:45;25.80;49.20
73254;DHT22;61474;50.834;4.552;2022-09-09T09:23:16;25.80;49.10
73254;DHT22;61474;50.834;4.552;2022-09-09T09:25:44;25.80;49.20
73254;DHT22;61474;50.834;4.552;2022-09-09T09:28:17;25.80;49.20
73254;DHT22;61474;50.834;4.552;2022-09-09T09:30:54;25.80;49.10
73254;DHT22;61474;50.834;4.552;2022-09-09T09:35:49;25.80;49.20
73254;DHT22;61474;50.834;4.552;2022-09-09T09:38:19;25.80;49.20
73254;DHT22;61474;50.834;4.552;2022-09-09T09:40:48;25.80;49.30
73254;DHT22;61474;50.834;4.552;2022-09-09T09:43:18;25.80;49.30
73254;DHT22;61474;50.834;4.552;2022-09-09T09:45:45;25.80;49.20
73254;DHT22;61474;50.834;4.552;2022-09-09T09:48:11;25.60;50.10
73254;DHT22;61474;50.834;4.552;2022-09-09T09:50:50;25.60;49.30
73254;DHT22;61474;50.834;4.552;2022-09-09T09:53:24;25.60;49.40
73254;DHT22;61474;50.834;4.552;2022-09-09T09:55:52;25.60;49.50
73254;DHT22;61474;50.834;4.552;2022-09-09T09:58:18;25.70;49.50
73254;DHT22;61474;50.834;4.552;2022-09-09T10:00:48;25.60;49.60
73254;DHT22;61474;50.834;4.552;2022-09-09T10:03:49;25.50;49.80
73254;DHT22;61474;50.834;4.552;2022-09-09T10:06:06;25.50;50.10
73254;DHT22;61474;50.834;4.552;2022-09-09T10:08:33;25.50;50.30
73254;DHT22;61474;50.834;4.552;2022-09-09T10:11:09;25.40;50.40
73254;DHT22;61474;50.834;4.552;2022-09-09T10:16:31;25.50;50.30
73254;DHT22;61474;50.834;4.552;2022-09-09T10:19:01;25.50;50.00
73254;DHT22;61474;50.834;4.552;2022-09-09T10:21:37;25.60;50.10
73254;DHT22;61474;50.834;4.552;2022-09-09T10:24:14;25.60;49.90
73254;DHT22;61474;50.834;4.552;2022-09-09T10:31:55;25.60;50.00
73254;DHT22;61474;50.834;4.552;2022-09-09T10:37:30;25.60;50.70
73254;DHT22;61474;50.834;4.552;2022-09-09T10:40:02;25.70;50.40
73254;DHT22;61474;50.834;4.552;2022-09-09T10:42:34;25.70;50.50
73254;DHT22;61474;50.834;4.552;2022-09-09T10:45:07;25.70;50.70
73254;DHT22;61474;50.834;4.552;2022-09-09T10:50:29;25.80;51.00
73254;DHT22;61474;50.834;4.552;2022-09-09T10:53:02;25.80;51.00
73254;DHT22;61474;50.834;4.552;2022-09-09T10:55:32;25.70;51.10
73254;DHT22;61474;50.834;4.552;2022-09-09T10:58:02;25.80;51.10
73254;DHT22;61474;50.834;4.552;2022-09-09T11:00:36;25.80;50.90
73254;DHT22;61474;50.834;4.552;2022-09-09T11:03:04;25.70;50.90
73254;DHT22;61474;50.834;4.552;2022-09-09T11:05:31;25.80;50.90
73254;DHT22;61474;50.834;4.552;2022-09-09T11:08:00;25.80;50.70
73254;DHT22;61474;50.834;4.552;2022-09-09T11:14:10;25.80;50.40
73254;DHT22;61474;50.834;4.552;2022-09-09T11:18:46;25.80;50.30
73254;DHT22;61474;50.834;4.552;2022-09-09T11:21:34;25.80;50.20
73254;DHT22;61474;50.834;4.552;2022-09-09T11:23:59;25.80;50.10
73254;DHT22;61474;50.834;4.552;2022-09-09T11:26:38;25.80;50.10
73254;DHT22;61474;50.834;4.552;2022-09-09T11:44:40;25.80;49.50
73254;DHT22;61474;50.834;4.552;2022-09-09T11:47:26;25.80;49.20
73254;DHT22;61474;50.834;4.552;2022-09-09T11:55:40;25.70;49.20
73254;DHT22;61474;50.834;4.552;2022-09-09T11:58:15;25.70;49.10
73254;DHT22;61474;50.834;4.552;2022-09-09T12:00:42;25.70;48.90
73254;DHT22;61474;50.834;4.552;2022-09-09T12:05:56;25.80;48.70
73254;DHT22;61474;50.834;4.552;2022-09-09T12:08:25;25.80;48.60
73254;DHT22;61474;50.834;4.552;2022-09-09T12:10:53;25.80;48.50
73254;DHT22;61474;50.834;4.552;2022-09-09T12:13:20;25.80;48.20
73254;DHT22;61474;50.834;4.552;2022-09-09T12:15:48;25.80;48.40
73254;DHT22;61474;50.834;4.552;2022-09-09T12:18:21;25.80;48.10
73254;DHT22;61474;50.834;4.552;2022-09-09T12:20:58;25.80;48.20
73254;DHT22;61474;50.834;4.552;2022-09-09T12:26:02;25.70;47.70
73254;DHT22;61474;50.834;4.552;2022-09-09T12:31:21;25.60;47.40
73254;DHT22;61474;50.834;4.552;2022-09-09T12:33:48;25.60;47.20
73254;DHT22;61474;50.834;4.552;2022-09-09T12:36:17;25.60;47.40
73254;DHT22;61474;50.834;4.552;2022-09-09T12:38:44;25.60;47.50
73254;DHT22;61474;50.834;4.552;2022-09-09T12:41:20;25.50;47.60
73254;DHT22;61474;50.834;4.552;2022-09-09T12:43:46;25.50;47.70
73254;DHT22;61474;50.834;4.552;2022-09-09T12:46:16;25.50;47.80
73254;DHT22;61474;50.834;4.552;2022-09-09T12:48:46;25.70;47.70
73254;DHT22;61474;50.834;4.552;2022-09-09T12:51:28;25.60;47.80
73254;DHT22;61474;50.834;4.552;2022-09-09T12:53:54;25.70;47.90
73254;DHT22;61474;50.834;4.552;2022-09-09T12:56:29;25.60;47.90
73254;DHT22;61474;50.834;4.552;2022-09-09T12:58:56;25.60;48.40
73254;DHT22;61474;50.834;4.552;2022-09-09T13:03:51;25.70;48.30
73254;DHT22;61474;50.834;4.552;2022-09-09T13:06:21;25.60;48.40
73254;DHT22;61474;50.834;4.552;2022-09-09T13:08:48;25.60;48.70
73254;DHT22;61474;50.834;4.552;2022-09-09T13:11:16;25.60;48.90
73254;DHT22;61474;50.834;4.552;2022-09-09T13:13:42;25.60;49.10
73254;DHT22;61474;50.834;4.552;2022-09-09T13:16:22;25.60;49.30
73254;DHT22;61474;50.834;4.552;2022-09-09T13:18:48;25.60;49.40
73254;DHT22;61474;50.834;4.552;2022-09-09T13:21:14;25.50;49.80
73254;DHT22;61474;50.834;4.552;2022-09-09T13:23:40;25.40;50.10
73254;DHT22;61474;50.834;4.552;2022-09-09T13:26:22;25.40;50.50
73254;DHT22;61474;50.834;4.552;2022-09-09T13:28:48;25.50;50.60
73254;DHT22;61474;50.834;4.552;2022-09-09T13:33:45;25.50;50.60
73254;DHT22;61474;50.834;4.552;2022-09-09T13:36:11;25.40;50.50
73254;DHT22;61474;50.834;4.552;2022-09-09T13:41:19;25.50;50.20
73254;DHT22;61474;50.834;4.552;2022-09-09T13:43:46;25.40;50.50
73254;DHT22;61474;50.834;4.552;2022-09-09T13:48:53;25.50;50.60
73254;DHT22;61474;50.834;4.552;2022-09-09T13:51:28;25.50;50.70
73254;DHT22;61474;50.834;4.552;2022-09-09T13:53:54;25.50;50.80
73254;DHT22;61474;50.834;4.552;2022-09-09T13:56:20;25.50;51.00
73254;DHT22;61474;50.834;4.552;2022-09-09T13:58:45;25.40;51.10
73254;DHT22;61474;50.834;4.552;2022-09-09T14:01:11;25.40;51.20
73254;DHT22;61474;50.834;4.552;2022-09-09T14:03:36;25.40;51.30
73254;DHT22;61474;50.834;4.552;2022-09-09T14:06:02;25.50;51.20
73254;DHT22;61474;50.834;4.552;2022-09-09T14:08:27;25.50;51.00
73254;DHT22;61474;50.834;4.552;2022-09-09T14:11:02;25.60;50.80
73254;DHT22;61474;50.834;4.552;2022-09-09T14:13:28;25.70;50.70
73254;DHT22;61474;50.834;4.552;2022-09-09T14:15:53;25.70;50.60
73254;DHT22;61474;50.834;4.552;2022-09-09T14:18:19;25.60;50.60
73254;DHT22;61474;50.834;4.552;2022-09-09T14:20:44;25.70;50.40
73254;DHT22;61474;50.834;4.552;2022-09-09T14:23:11;25.60;50.60
73254;DHT22;61474;50.834;4.552;2022-09-09T14:25:38;25.60;50.30
73254;DHT22;61474;50.834;4.552;2022-09-09T14:28:04;25.60;50.30
73254;DHT22;61474;50.834;4.552;2022-09-09T14:30:29;25.70;50.10
73254;DHT22;61474;50.834;4.552;2022-09-09T14:32:55;25.60;49.90
73254;DHT22;61474;50.834;4.552;2022-09-09T14:35:21;25.70;49.70
73254;DHT22;61474;50.834;4.552;2022-09-09T14:37:47;25.70;49.50
73254;DHT22;61474;50.834;4.552;2022-09-09T14:40:14;25.80;49.40
73254;DHT22;61474;50.834;4.552;2022-09-09T14:42:40;25.80;49.30
73254;DHT22;61474;50.834;4.552;2022-09-09T14:45:06;25.80;49.30
73254;DHT22;61474;50.834;4.552;2022-09-09T14:47:32;25.80;49.20
73254;DHT22;61474;50.834;4.552;2022-09-09T14:49:57;25.80;49.20
73254;DHT22;61474;50.834;4.552;2022-09-09T14:52:23;25.80;49.40
73254;DHT22;61474;50.834;4.552;2022-09-09T14:54:48;25.60;49.80
73254;DHT22;61474;50.834;4.552;2022-09-09T14:57:14;25.60;49.70
73254;DHT22;61474;50.834;4.552;2022-09-09T14:59:40;25.60;49.70
73254;DHT22;61474;50.834;4.552;2022-09-09T15:02:07;25.70;49.70
73254;DHT22;61474;50.834;4.552;2022-09-09T15:04:33;25.60;49.60
73254;DHT22;61474;50.834;4.552;2022-09-09T15:06:59;25.50;49.70
73254;DHT22;61474;50.834;4.552;2022-09-09T15:09:24;25.50;50.10
73254;DHT22;61474;50.834;4.552;2022-09-09T15:11:50;25.50;50.20
73254;DHT22;61474;50.834;4.552;2022-09-09T15:14:15;25.40;50.10
73254;DHT22;61474;50.834;4.552;2022-09-09T15:16:41;25.40;50.80
73254;DHT22;61474;50.834;4.552;2022-09-09T15:19:06;25.50;50.00
73254;DHT22;61474;50.834;4.552;2022-09-09T15:21:33;25.40;50.10
73254;DHT22;61474;50.834;4.552;2022-09-09T15:23:59;25.50;50.10
73254;DHT22;61474;50.834;4.552;2022-09-09T15:26:24;25.50;50.10
73254;DHT22;61474;50.834;4.552;2022-09-09T15:28:51;25.30;50.30
73254;DHT22;61474;50.834;4.552;2022-09-09T15:31:17;25.30;50.40
73254;DHT22;61474;50.834;4.552;2022-09-09T15:33:50;25.20;50.10
73254;DHT22;61474;50.834;4.552;2022-09-09T15:36:20;25.30;50.10
73254;DHT22;61474;50.834;4.552;2022-09-09T15:38:46;25.30;50.00
73254;DHT22;61474;50.834;4.552;2022-09-09T15:41:12;25.30;49.80
73254;DHT22;61474;50.834;4.552;2022-09-09T15:43:38;25.40;49.60
73254;DHT22;61474;50.834;4.552;2022-09-09T15:48:42;25.40;49.30
73254;DHT22;61474;50.834;4.552;2022-09-09T15:51:08;25.50;49.30
73254;DHT22;61474;50.834;4.552;2022-09-09T15:53:34;25.50;49.20
73254;DHT22;61474;50.834;4.552;2022-09-09T15:56:00;25.50;49.20
73254;DHT22;61474;50.834;4.552;2022-09-09T15:58:25;25.50;49.30
73254;DHT22;61474;50.834;4.552;2022-09-09T16:00:50;25.60;49.30
73254;DHT22;61474;50.834;4.552;2022-09-09T16:03:16;25.60;49.30
73254;DHT22;61474;50.834;4.552;2022-09-09T16:05:42;25.60;49.40
73254;DHT22;61474;50.834;4.552;2022-09-09T16:08:08;25.60;49.30
73254;DHT22;61474;50.834;4.552;2022-09-09T16:10:34;25.70;49.20
73254;DHT22;61474;50.834;4.552;2022-09-09T16:12:59;25.70;49.30
73254;DHT22;61474;50.834;4.552;2022-09-09T16:15:24;25.50;49.50
73254;DHT22;61474;50.834;4.552;2022-09-09T16:17:53;25.50;49.80
73254;DHT22;61474;50.834;4.552;2022-09-09T16:20:18;25.50;49.80
73254;DHT22;61474;50.834;4.552;2022-09-09T16:22:44;25.50;49.70
73254;DHT22;61474;50.834;4.552;2022-09-09T16:25:09;25.60;49.70
73254;DHT22;61474;50.834;4.552;2022-09-09T16:27:35;25.60;49.60
73254;DHT22;61474;50.834;4.552;2022-09-09T16:30:01;25.60;49.70
73254;DHT22;61474;50.834;4.552;2022-09-09T16:32:26;25.60;49.70
73254;DHT22;61474;50.834;4.552;2022-09-09T16:34:52;25.60;49.60
73254;DHT22;61474;50.834;4.552;2022-09-09T16:37:17;25.50;49.80
73254;DHT22;61474;50.834;4.552;2022-09-09T16:39:43;25.50;49.50
73254;DHT22;61474;50.834;4.552;2022-09-09T16:42:08;25.50;49.60
73254;DHT22;61474;50.834;4.552;2022-09-09T16:44:34;25.50;49.60
73254;DHT22;61474;50.834;4.552;2022-09-09T16:47:00;25.50;49.60
73254;DHT22;61474;50.834;4.552;2022-09-09T16:49:25;25.50;49.70
73254;DHT22;61474;50.834;4.552;2022-09-09T16:51:52;25.50;49.80
73254;DHT22;61474;50.834;4.552;2022-09-09T16:54:20;25.50;50.00
73254;DHT22;61474;50.834;4.552;2022-09-09T16:56:47;25.50;50.00
73254;DHT22;61474;50.834;4.552;2022-09-09T16:59:16;25.50;50.00
73254;DHT22;61474;50.834;4.552;2022-09-09T17:01:43;25.50;49.80
73254;DHT22;61474;50.834;4.552;2022-09-09T17:04:10;25.50;50.00
73254;DHT22;61474;50.834;4.552;2022-09-09T17:06:36;25.60;49.90
73254;DHT22;61474;50.834;4.552;2022-09-09T17:09:05;25.50;50.00
73254;DHT22;61474;50.834;4.552;2022-09-09T17:11:31;25.50;50.00
73254;DHT22;61474;50.834;4.552;2022-09-09T17:13:57;25.50;50.10
73254;DHT22;61474;50.834;4.552;2022-09-09T17:16:24;25.50;50.10
73254;DHT22;61474;50.834;4.552;2022-09-09T17:18:50;25.50;50.00
73254;DHT22;61474;50.834;4.552;2022-09-09T17:21:17;25.50;50.00